createdAt,value
2023-03-26T00:02:02.138Z,3.47
2023-03-26T00:05:04.387Z,4.27
2023-03-26T00:08:08.752Z,5.10
2023-03-26T00:11:12.501Z,5.80
2023-03-26T00:14:17.615Z,4.63
2023-03-26T00:17:19.441Z,4.27
2023-03-26T00:20:21.308Z,5.53
2023-03-26T00:23:23.513Z,4.13
2023-03-26T00:26:26.717Z,3.77
2023-03-26T00:29:28.696Z,4.80
2023-03-26T00:32:30.869Z,2.53
2023-03-26T00:35:35.432Z,3.23
2023-03-26T00:38:39.207Z,2.73
2023-03-26T00:41:43.710Z,4.43
2023-03-26T00:44:45.573Z,4.30
2023-03-26T00:47:47.776Z,5.60
2023-03-26T00:50:50.369Z,6.07
2023-03-26T00:53:52.610Z,5.07
2023-03-26T00:56:56.021Z,4.20
2023-03-26T00:59:57.896Z,8.03
2023-03-26T01:02:59.812Z,3.63
2023-03-26T01:06:08.342Z,5.33
2023-03-26T01:09:16.026Z,5.13
2023-03-26T01:12:22.256Z,5.27
2023-03-26T01:15:29.934Z,6.37
2023-03-26T01:18:34.194Z,8.70
2023-03-26T01:21:38.726Z,6.10
2023-03-26T01:24:42.654Z,6.03
2023-03-26T01:27:51.936Z,5.73
2023-03-26T01:31:10.157Z,5.13
2023-03-26T01:34:23.904Z,5.03
2023-03-26T01:37:34.897Z,6.83
2023-03-26T01:41:07.035Z,5.27
2023-03-26T01:44:24.070Z,3.43
2023-03-26T01:47:27.487Z,4.20
2023-03-26T01:50:29.714Z,6.20
2023-03-26T01:53:33.502Z,5.83
2023-03-26T01:57:22.676Z,7.17
2023-03-26T02:00:30.558Z,7.07
2023-03-26T02:03:39.112Z,3.83
2023-03-26T02:06:50.081Z,4.87
2023-03-26T02:09:58.302Z,6.53
2023-03-26T02:13:00.821Z,4.00
2023-03-26T02:16:06.051Z,7.27
2023-03-26T02:19:15.570Z,7.00
2023-03-26T02:22:17.791Z,4.33
2023-03-26T02:25:21.225Z,7.30
2023-03-26T02:28:23.112Z,7.00
2023-03-26T02:31:26.562Z,7.63
2023-03-26T02:34:28.441Z,7.97
2023-03-26T02:37:30.509Z,15.03
2023-03-26T02:40:32.454Z,13.03
2023-03-26T02:43:34.240Z,11.20
2023-03-26T02:46:36.200Z,11.20
2023-03-26T02:49:38.071Z,6.23
2023-03-26T02:52:40.014Z,4.73
2023-03-26T02:55:41.950Z,6.20
2023-03-26T02:58:43.714Z,6.97
2023-03-26T03:01:45.444Z,7.90
2023-03-26T03:04:47.422Z,10.53
2023-03-26T03:07:49.150Z,8.20
2023-03-26T03:11:01.749Z,6.67
2023-03-26T03:14:04.497Z,6.13
2023-03-26T03:17:06.551Z,5.00
2023-03-26T03:20:12.038Z,8.00
2023-03-26T03:23:14.130Z,5.77
2023-03-26T03:26:21.809Z,8.97
2023-03-26T03:29:23.984Z,8.77
2023-03-26T03:32:26.088Z,7.57
2023-03-26T03:35:30.231Z,5.97
2023-03-26T03:38:32.060Z,6.40
2023-03-26T03:41:33.999Z,6.13
2023-03-26T03:44:36.037Z,5.77
2023-03-26T03:47:38.247Z,7.70
2023-03-26T03:50:39.974Z,6.23
2023-03-26T03:53:41.782Z,5.97
2023-03-26T03:56:45.736Z,12.40
2023-03-26T03:59:48.519Z,5.70
2023-03-26T04:02:50.596Z,6.37
2023-03-26T04:05:55.107Z,7.83
2023-03-26T04:08:57.257Z,10.13
2023-03-26T04:11:59.082Z,5.63
2023-03-26T04:15:01.033Z,12.13
2023-03-26T04:18:02.995Z,7.63
2023-03-26T04:21:07.506Z,7.37
2023-03-26T04:24:10.895Z,7.67
2023-03-26T04:27:16.623Z,10.60
2023-03-26T04:30:20.758Z,5.73
2023-03-26T04:33:22.804Z,9.90
2023-03-26T04:36:28.597Z,10.80
2023-03-26T04:39:30.621Z,11.47
2023-03-26T04:42:33.324Z,10.30
2023-03-26T04:45:35.203Z,6.43
2023-03-26T04:48:38.726Z,9.57
2023-03-26T04:51:42.525Z,4.40
2023-03-26T04:54:45.751Z,9.57
2023-03-26T04:57:55.701Z,10.27
2023-03-26T05:01:01.160Z,9.27
2023-03-26T05:04:13.599Z,9.83
2023-03-26T05:07:19.124Z,9.03
2023-03-26T05:10:21.885Z,6.97
2023-03-26T05:13:24.295Z,11.33
2023-03-26T05:16:28.279Z,12.50
2023-03-26T05:19:30.048Z,10.10
2023-03-26T05:22:31.792Z,16.60
2023-03-26T05:25:34.881Z,9.63
2023-03-26T05:28:37.057Z,8.23
2023-03-26T05:31:38.874Z,9.30
2023-03-26T05:34:44.296Z,8.20
2023-03-26T05:37:47.319Z,9.67
2023-03-26T05:40:49.188Z,9.70
2023-03-26T05:43:51.239Z,12.27
2023-03-26T05:46:53.278Z,10.33
2023-03-26T05:49:55.271Z,13.23
2023-03-26T05:52:57.111Z,9.00
2023-03-26T05:55:59.176Z,9.33
2023-03-26T05:59:01.139Z,9.47
2023-03-26T06:02:03.009Z,7.13
2023-03-26T06:05:05.200Z,14.20
2023-03-26T06:08:07.289Z,9.30
2023-03-26T06:11:13.166Z,8.20
2023-03-26T06:14:14.893Z,9.80
2023-03-26T06:17:16.696Z,8.07
2023-03-26T06:20:18.539Z,8.20
2023-03-26T06:23:20.915Z,11.07
2023-03-26T06:26:22.894Z,8.73
2023-03-26T06:29:24.757Z,7.17
2023-03-26T06:32:26.574Z,10.57
2023-03-26T06:35:30.032Z,8.20
2023-03-26T06:38:31.982Z,6.83
2023-03-26T06:41:34.617Z,9.33
2023-03-26T06:44:36.803Z,11.63
2023-03-26T06:47:38.862Z,13.87
2023-03-26T06:50:40.614Z,11.10
2023-03-26T06:53:42.410Z,11.33
2023-03-26T06:56:44.987Z,11.77
2023-03-26T06:59:46.863Z,8.37
2023-03-26T07:02:48.798Z,12.23
2023-03-26T07:05:50.878Z,12.20
2023-03-26T07:08:52.711Z,10.07
2023-03-26T07:11:54.560Z,8.67
2023-03-26T07:14:57.912Z,11.13
2023-03-26T07:18:01.717Z,8.67
2023-03-26T07:21:03.842Z,11.80
2023-03-26T07:24:06.036Z,13.47
2023-03-26T07:27:46.727Z,11.93
2023-03-26T07:31:06.685Z,8.53
2023-03-26T07:34:35.295Z,12.37
2023-03-26T07:37:55.918Z,7.87
2023-03-26T07:41:07.403Z,8.97
2023-03-26T07:44:18.939Z,12.17
2023-03-26T07:47:27.259Z,12.37
2023-03-26T07:50:29.189Z,10.03
2023-03-26T07:53:31.214Z,11.87
2023-03-26T07:56:42.802Z,9.93
2023-03-26T07:59:54.475Z,7.63
2023-03-26T08:03:15.162Z,7.47
2023-03-26T08:06:31.024Z,9.33
2023-03-26T08:09:40.640Z,10.87
2023-03-26T08:12:55.140Z,11.47
2023-03-26T08:16:16.966Z,9.13
2023-03-26T08:19:54.552Z,8.43
2023-03-26T08:23:19.917Z,12.73
2023-03-26T08:26:44.527Z,9.53
2023-03-26T08:30:17.201Z,16.30
2023-03-26T08:33:20.868Z,12.27
2023-03-26T08:36:23.399Z,13.37
2023-03-26T08:39:25.782Z,9.53
2023-03-26T08:43:05.737Z,9.67
2023-03-26T08:46:46.501Z,11.00
2023-03-26T08:50:00.231Z,10.77
2023-03-26T08:53:27.838Z,8.50
2023-03-26T08:56:32.697Z,12.60
2023-03-26T08:59:56.796Z,11.47
2023-03-26T09:03:05.947Z,9.00
2023-03-26T09:06:35.787Z,10.17
2023-03-26T09:09:50.320Z,10.67
2023-03-26T09:13:24.758Z,13.57
2023-03-26T09:16:59.309Z,11.30
2023-03-26T09:20:23.049Z,12.83
2023-03-26T09:23:37.072Z,10.30
2023-03-26T09:27:07.104Z,15.63
2023-03-26T09:30:15.665Z,9.03
2023-03-26T09:33:31.303Z,12.60
2023-03-26T09:37:08.329Z,7.77
2023-03-26T09:40:18.973Z,11.87
2023-03-26T09:43:45.468Z,14.83
2023-03-26T09:47:14.549Z,9.10
2023-03-26T09:50:52.816Z,10.00
2023-03-26T09:54:39.390Z,7.63
2023-03-26T09:58:18.595Z,15.03
2023-03-26T10:01:49.340Z,17.47
2023-03-26T10:05:16.091Z,12.17
2023-03-26T10:08:32.073Z,12.03
2023-03-26T10:12:00.625Z,10.67
2023-03-26T10:15:32.270Z,13.03
2023-03-26T10:18:42.993Z,10.27
2023-03-26T10:22:05.425Z,13.03
2023-03-26T10:25:28.754Z,12.00
2023-03-26T10:28:40.884Z,7.47
2023-03-26T10:32:02.163Z,8.00
2023-03-26T10:35:41.752Z,7.50
2023-03-26T10:39:03.341Z,7.47
2023-03-26T10:42:24.206Z,5.43
2023-03-26T10:45:41.408Z,8.80
2023-03-26T10:48:53.677Z,7.33
2023-03-26T10:52:05.031Z,7.83
2023-03-26T10:55:24.310Z,15.57
2023-03-26T10:58:48.502Z,14.80
2023-03-26T11:02:30.950Z,9.10
2023-03-26T11:05:38.658Z,7.97
2023-03-26T11:09:18.057Z,8.83
2023-03-26T11:12:28.829Z,5.47
2023-03-26T11:15:41.829Z,8.30
2023-03-26T11:18:47.122Z,8.83
2023-03-26T11:22:12.641Z,7.27
2023-03-26T11:25:36.883Z,13.00
2023-03-26T11:29:03.041Z,12.60
2023-03-26T11:32:10.760Z,13.23
2023-03-26T11:35:41.043Z,9.60
2023-03-26T11:38:47.131Z,8.90
2023-03-26T11:41:52.223Z,9.57
2023-03-26T11:45:02.574Z,8.03
2023-03-26T11:48:17.121Z,8.80
2023-03-26T11:51:33.905Z,8.17
2023-03-26T11:54:37.060Z,8.13
2023-03-26T11:57:43.179Z,4.73
2023-03-26T12:00:45.233Z,5.40
2023-03-26T12:04:07.134Z,6.10
2023-03-26T12:07:23.950Z,5.10
2023-03-26T12:10:38.302Z,7.33
2023-03-26T12:13:44.719Z,7.17
2023-03-26T12:17:08.767Z,5.23
2023-03-26T12:20:25.773Z,6.17
2023-03-26T12:23:44.398Z,7.13
2023-03-26T12:26:46.433Z,9.07
2023-03-26T12:30:25.555Z,3.70
2023-03-26T12:33:35.520Z,5.90
2023-03-26T12:36:39.018Z,6.13
2023-03-26T12:40:09.700Z,3.17
2023-03-26T12:44:52.814Z,5.30
2023-03-26T12:47:58.180Z,5.93
2023-03-26T12:50:16.470Z,13.30
2023-03-26T12:53:40.055Z,12.37
2023-03-26T12:57:11.949Z,7.07
2023-03-26T13:00:27.292Z,24.23
2023-03-26T13:03:29.637Z,12.10
2023-03-26T13:07:00.043Z,11.70
2023-03-26T13:10:04.156Z,3.60
2023-03-26T13:13:28.311Z,5.13
2023-03-26T13:16:42.505Z,9.13
2023-03-26T13:19:59.478Z,8.77
2023-03-26T13:23:42.827Z,7.87
2023-03-26T13:27:17.554Z,5.53
2023-03-26T13:30:51.754Z,3.00
2023-03-26T13:33:56.956Z,3.63
2023-03-26T13:37:23.167Z,5.43
2023-03-26T13:40:43.378Z,3.33
2023-03-26T13:44:00.686Z,5.57
2023-03-26T13:47:12.658Z,1.83
2023-03-26T13:50:19.355Z,2.87
2023-03-26T13:53:29.358Z,3.77
2023-03-26T13:56:38.795Z,3.07
2023-03-26T13:59:58.223Z,2.83
2023-03-26T14:03:12.083Z,4.27
2023-03-26T14:06:46.596Z,3.83
2023-03-26T14:09:54.345Z,4.63
2023-03-26T14:13:22.714Z,2.43
2023-03-26T14:16:31.586Z,3.97
2023-03-26T14:20:09.196Z,2.27
2023-03-26T14:23:25.913Z,2.63
2023-03-26T14:26:40.498Z,5.40
2023-03-26T14:30:12.370Z,4.50
2023-03-26T14:33:27.910Z,6.47
2023-03-26T14:37:06.207Z,7.07
2023-03-26T14:40:17.297Z,3.17
2023-03-26T14:43:34.410Z,10.10
2023-03-26T14:46:41.601Z,7.77
2023-03-26T14:49:46.511Z,8.63
2023-03-26T14:52:50.911Z,4.50
2023-03-26T14:56:01.499Z,5.17
2023-03-26T14:59:34.787Z,4.13
2023-03-26T15:03:22.668Z,4.50
2023-03-26T15:06:48.342Z,4.30
2023-03-26T15:10:13.327Z,4.13
2023-03-26T15:13:51.888Z,3.23
2023-03-26T15:17:32.768Z,3.07
2023-03-26T15:20:47.686Z,1.93
2023-03-26T15:24:08.268Z,2.27
2023-03-26T15:27:28.393Z,1.37
2023-03-26T15:30:59.617Z,2.30
2023-03-26T15:34:20.159Z,4.07
2023-03-26T15:37:51.737Z,6.33
2023-03-26T15:41:01.871Z,2.20
2023-03-26T15:44:25.544Z,1.93
2023-03-26T15:47:48.704Z,1.53
2023-03-26T15:51:04.890Z,3.10
2023-03-26T15:54:25.471Z,3.00
2023-03-26T15:58:01.446Z,2.43
2023-03-26T16:01:21.492Z,1.63
2023-03-26T16:04:39.236Z,1.93
2023-03-26T16:08:18.966Z,1.37
2023-03-26T16:11:44.259Z,1.70
2023-03-26T16:15:03.816Z,4.07
2023-03-26T16:18:12.279Z,2.53
2023-03-26T16:21:37.211Z,4.23
2023-03-26T16:24:44.760Z,3.77
2023-03-26T16:27:46.986Z,3.77
2023-03-26T16:31:10.723Z,1.77
2023-03-26T16:34:38.863Z,5.07
2023-03-26T16:37:52.945Z,7.23
2023-03-26T16:41:15.216Z,5.53
2023-03-26T16:44:28.590Z,2.47
2023-03-26T16:48:00.995Z,6.30
2023-03-26T16:51:51.047Z,8.60
2023-03-26T16:55:24.572Z,8.40
2023-03-26T16:58:48.013Z,4.30
2023-03-26T17:01:59.718Z,4.23
2023-03-26T17:05:34.345Z,4.47
2023-03-26T17:09:04.900Z,5.10
2023-03-26T17:12:20.331Z,6.73
2023-03-26T17:15:27.255Z,6.93
2023-03-26T17:18:43.833Z,10.13
2023-03-26T17:21:57.517Z,7.90
2023-03-26T17:25:11.917Z,5.27
2023-03-26T17:28:41.368Z,5.57
2023-03-26T17:32:01.182Z,6.60
2023-03-26T17:35:07.305Z,5.73
2023-03-26T17:38:18.154Z,4.60
2023-03-26T17:41:53.203Z,6.67
2023-03-26T17:45:02.662Z,8.33
2023-03-26T17:48:21.943Z,9.30
2023-03-26T17:51:51.631Z,8.07
2023-03-26T17:54:56.718Z,8.87
2023-03-26T17:58:01.565Z,9.60
2023-03-26T18:01:28.828Z,5.60
2023-03-26T18:04:37.622Z,7.63
2023-03-26T18:08:13.328Z,4.53
2023-03-26T18:11:27.434Z,7.47
2023-03-26T18:14:45.228Z,3.53
2023-03-26T18:17:48.083Z,4.13
2023-03-26T18:20:52.014Z,4.47
2023-03-26T18:23:53.923Z,8.03
2023-03-26T18:27:16.484Z,4.97
2023-03-26T18:30:23.516Z,6.13
2023-03-26T18:33:26.047Z,7.60
2023-03-26T18:36:28.055Z,12.80
2023-03-26T18:39:29.829Z,10.03
2023-03-26T18:42:33.013Z,2.03
2023-03-26T18:45:37.688Z,1.60
2023-03-26T18:48:40.107Z,0.93
2023-03-26T18:51:56.089Z,2.33
2023-03-26T18:54:59.806Z,2.23
2023-03-26T18:58:20.932Z,1.30
2023-03-26T19:01:26.131Z,0.50
2023-03-26T19:04:31.764Z,3.37
2023-03-26T19:07:35.889Z,1.20
2023-03-26T19:10:37.876Z,1.43
2023-03-26T19:13:43.490Z,1.13
2023-03-26T19:16:56.517Z,3.40
2023-03-26T19:19:58.564Z,2.77
2023-03-26T19:23:00.398Z,1.27
2023-03-26T19:26:05.430Z,2.23
2023-03-26T19:29:10.654Z,3.50
2023-03-26T19:32:23.240Z,1.73
2023-03-26T19:35:25.306Z,1.10
2023-03-26T19:38:28.946Z,1.23
2023-03-26T19:41:35.398Z,0.80
2023-03-26T19:44:41.797Z,1.53
2023-03-26T19:47:50.432Z,0.50
2023-03-26T19:51:06.130Z,0.47
2023-03-26T19:54:16.510Z,1.03
2023-03-26T19:57:18.597Z,0.43
2023-03-26T20:00:20.457Z,1.17
2023-03-26T20:03:27.386Z,1.43
2023-03-26T20:06:42.292Z,0.50
2023-03-26T20:09:45.525Z,0.60
2023-03-26T20:12:47.285Z,0.57
2023-03-26T20:16:07.445Z,1.53
2023-03-26T20:19:09.596Z,1.47
2023-03-26T20:22:16.966Z,1.30
2023-03-26T20:25:25.203Z,0.70
2023-03-26T20:28:28.169Z,2.40
2023-03-26T20:31:30.261Z,4.70
2023-03-26T20:34:32.519Z,1.30
2023-03-26T20:37:34.184Z,0.60
2023-03-26T20:40:35.912Z,0.30
2023-03-26T20:43:38.322Z,1.73
2023-03-26T20:46:40.049Z,0.30
2023-03-26T20:49:42.071Z,0.30
2023-03-26T20:52:44.368Z,3.80
2023-03-26T20:55:46.970Z,0.30
2023-03-26T20:59:09.997Z,1.03
2023-03-26T21:02:12.581Z,0.47
2023-03-26T21:05:15.109Z,1.80
2023-03-26T21:08:19.232Z,0.93
2023-03-26T21:11:37.092Z,0.97
2023-03-26T21:14:44.460Z,0.80
2023-03-26T21:17:46.598Z,0.83
2023-03-26T21:21:05.241Z,1.80
2023-03-26T21:24:33.868Z,0.87
2023-03-26T21:27:52.235Z,0.70
2023-03-26T21:30:55.906Z,1.60
2023-03-26T21:33:58.218Z,0.50
2023-03-26T21:37:00.989Z,1.70
2023-03-26T21:40:12.955Z,0.83
2023-03-26T21:43:15.105Z,0.60
2023-03-26T21:46:18.053Z,0.47
2023-03-26T21:49:20.438Z,0.80
2023-03-26T21:52:22.596Z,1.63
2023-03-26T21:55:24.845Z,1.10
2023-03-26T21:58:41.142Z,2.33
2023-03-26T22:01:51.200Z,2.10
2023-03-26T22:05:06.536Z,1.80
2023-03-26T22:08:24.351Z,1.70
2023-03-26T22:11:26.295Z,0.90
2023-03-26T22:14:28.120Z,2.13
2023-03-26T22:17:29.901Z,1.63
2023-03-26T22:20:31.800Z,2.27
2023-03-26T22:23:38.245Z,4.23
2023-03-26T22:26:40.337Z,0.73
2023-03-26T22:29:42.297Z,2.77
2023-03-26T22:32:44.798Z,1.30
2023-03-26T22:35:47.041Z,0.83
2023-03-26T22:38:48.934Z,1.97
2023-03-26T22:41:50.886Z,2.00
2023-03-26T22:44:52.751Z,2.00
2023-03-26T22:48:03.483Z,0.60
2023-03-26T22:51:08.402Z,1.53
2023-03-26T22:54:10.351Z,1.97
2023-03-26T22:57:12.226Z,1.30
2023-03-26T23:00:16.521Z,1.93
2023-03-26T23:03:20.282Z,2.37
2023-03-26T23:06:37.352Z,2.00
2023-03-26T23:09:39.246Z,2.00
2023-03-26T23:12:41.570Z,2.33
2023-03-26T23:15:45.074Z,2.60
2023-03-26T23:18:47.311Z,2.73
2023-03-26T23:21:49.100Z,3.00
2023-03-26T23:24:51.444Z,2.40
2023-03-26T23:27:53.691Z,4.63
2023-03-26T23:30:56.150Z,3.07
2023-03-26T23:33:59.459Z,2.10
2023-03-26T23:37:01.564Z,2.87
2023-03-26T23:40:09.931Z,2.17
2023-03-26T23:43:12.239Z,4.50
2023-03-26T23:46:17.752Z,3.77
2023-03-26T23:49:19.602Z,3.77
2023-03-26T23:52:22.563Z,2.93
2023-03-26T23:55:28.266Z,2.43
2023-03-26T23:58:30.869Z,1.20
